Robins, Iowa
Current Conditions -  °F | °C
As of 11:52 PM on Sunday 19 Oct 2014 (Local Time) from KCID Reporting Station
Clear Clear  
Wind Chill: 52°   Ceiling: Unl
Heat Index: 52°   Visibility: 10mi
Dew Point: 45°   Wind: 12mph
Humidity: 77%   Direction: 220°SW
Pressure: 29.87"   Gusts: NA
Location:  42.07°N, 91.67°W
Report Text: KCID 200452Z AUTO 22010KT 10SM CLR 11/07 A2987 RMK AO2 SLP114 T01110072
Loading
Personal Weather Stations






























Interactive Weather Map
Tropical Storm Tracking
New forecast layout! Learn more

10-Day Weather Forecast

Advertisements
Track Severe Weather on mobile